sensor_id;sensor_type;location;lat;lon;timestamp;temperature;humidity
10530;DHT22;5313;48.834;9.228;2022-07-03T00:01:43;19.40;99.90
10530;DHT22;5313;48.834;9.228;2022-07-03T00:04:09;19.30;99.90
10530;DHT22;5313;48.834;9.228;2022-07-03T00:06:34;19.30;99.90
10530;DHT22;5313;48.834;9.228;2022-07-03T00:09:03;19.50;99.90
10530;DHT22;5313;48.834;9.228;2022-07-03T00:11:29;19.50;99.90
10530;DHT22;5313;48.834;9.228;2022-07-03T00:13:55;19.30;99.90
10530;DHT22;5313;48.834;9.228;2022-07-03T00:16:20;19.10;99.90
10530;DHT22;5313;48.834;9.228;2022-07-03T00:18:46;18.80;99.90
10530;DHT22;5313;48.834;9.228;2022-07-03T00:21:16;18.50;99.90
10530;DHT22;5313;48.834;9.228;2022-07-03T00:24:04;18.40;99.90
10530;DHT22;5313;48.834;9.228;2022-07-03T00:26:33;18.20;99.90
10530;DHT22;5313;48.834;9.228;2022-07-03T00:29:01;18.20;99.90
10530;DHT22;5313;48.834;9.228;2022-07-03T00:31:30;18.10;99.90
10530;DHT22;5313;48.834;9.228;2022-07-03T00:33:58;18.20;99.90
10530;DHT22;5313;48.834;9.228;2022-07-03T00:36:35;18.30;99.90
10530;DHT22;5313;48.834;9.228;2022-07-03T00:39:01;18.40;99.90
10530;DHT22;5313;48.834;9.228;2022-07-03T00:41:28;18.40;99.90
10530;DHT22;5313;48.834;9.228;2022-07-03T00:43:54;18.40;99.90
10530;DHT22;5313;48.834;9.228;2022-07-03T00:46:22;18.30;99.90
10530;DHT22;5313;48.834;9.228;2022-07-03T00:48:50;18.20;99.90
10530;DHT22;5313;48.834;9.228;2022-07-03T00:51:20;18.30;99.90
10530;DHT22;5313;48.834;9.228;2022-07-03T00:53:46;18.30;99.90
10530;DHT22;5313;48.834;9.228;2022-07-03T00:56:16;18.20;99.90
10530;DHT22;5313;48.834;9.228;2022-07-03T00:58:41;17.90;99.90
10530;DHT22;5313;48.834;9.228;2022-07-03T01:01:08;17.90;99.90
10530;DHT22;5313;48.834;9.228;2022-07-03T01:03:39;17.80;99.90
10530;DHT22;5313;48.834;9.228;2022-07-03T01:06:13;17.70;99.90
10530;DHT22;5313;48.834;9.228;2022-07-03T01:08:49;17.60;99.90
10530;DHT22;5313;48.834;9.228;2022-07-03T01:11:35;17.60;99.90
10530;DHT22;5313;48.834;9.228;2022-07-03T01:14:32;17.70;99.90
10530;DHT22;5313;48.834;9.228;2022-07-03T01:17:20;17.70;99.90
10530;DHT22;5313;48.834;9.228;2022-07-03T01:19:49;17.50;99.90
10530;DHT22;5313;48.834;9.228;2022-07-03T01:22:42;17.50;99.90
10530;DHT22;5313;48.834;9.228;2022-07-03T01:25:21;17.40;99.90
10530;DHT22;5313;48.834;9.228;2022-07-03T01:30:38;17.50;99.90
10530;DHT22;5313;48.834;9.228;2022-07-03T01:33:08;17.50;99.90
10530;DHT22;5313;48.834;9.228;2022-07-03T01:35:38;17.40;99.90
10530;DHT22;5313;48.834;9.228;2022-07-03T01:38:09;17.10;99.90
10530;DHT22;5313;48.834;9.228;2022-07-03T01:40:37;17.10;99.90
10530;DHT22;5313;48.834;9.228;2022-07-03T01:43:11;17.10;99.90
10530;DHT22;5313;48.834;9.228;2022-07-03T01:45:47;17.10;99.90
10530;DHT22;5313;48.834;9.228;2022-07-03T01:48:15;17.20;99.90
10530;DHT22;5313;48.834;9.228;2022-07-03T01:50:42;17.20;99.90
10530;DHT22;5313;48.834;9.228;2022-07-03T01:53:09;17.30;99.90
10530;DHT22;5313;48.834;9.228;2022-07-03T01:55:39;17.30;99.90
10530;DHT22;5313;48.834;9.228;2022-07-03T01:58:05;17.30;99.90
10530;DHT22;5313;48.834;9.228;2022-07-03T02:00:40;17.40;99.90
10530;DHT22;5313;48.834;9.228;2022-07-03T02:03:06;17.40;99.90
10530;DHT22;5313;48.834;9.228;2022-07-03T02:05:44;17.40;99.90
10530;DHT22;5313;48.834;9.228;2022-07-03T02:08:48;17.40;99.90
10530;DHT22;5313;48.834;9.228;2022-07-03T02:11:22;17.30;99.90
10530;DHT22;5313;48.834;9.228;2022-07-03T02:16:24;17.20;99.90
10530;DHT22;5313;48.834;9.228;2022-07-03T02:19:03;17.20;99.90
10530;DHT22;5313;48.834;9.228;2022-07-03T02:21:30;17.20;99.90
10530;DHT22;5313;48.834;9.228;2022-07-03T02:24:16;17.20;99.90
10530;DHT22;5313;48.834;9.228;2022-07-03T02:26:46;17.10;99.90
10530;DHT22;5313;48.834;9.228;2022-07-03T02:29:18;17.10;99.90
10530;DHT22;5313;48.834;9.228;2022-07-03T02:31:46;17.20;99.90
10530;DHT22;5313;48.834;9.228;2022-07-03T02:34:16;17.20;99.90
10530;DHT22;5313;48.834;9.228;2022-07-03T02:36:47;17.20;99.90
10530;DHT22;5313;48.834;9.228;2022-07-03T02:39:23;17.10;99.90
10530;DHT22;5313;48.834;9.228;2022-07-03T02:41:57;17.10;99.90
10530;DHT22;5313;48.834;9.228;2022-07-03T02:44:38;17.00;99.90
10530;DHT22;5313;48.834;9.228;2022-07-03T02:47:22;16.90;99.90
10530;DHT22;5313;48.834;9.228;2022-07-03T02:50:08;16.80;99.90
10530;DHT22;5313;48.834;9.228;2022-07-03T03:00:27;16.80;99.90
10530;DHT22;5313;48.834;9.228;2022-07-03T03:02:58;16.90;99.90
10530;DHT22;5313;48.834;9.228;2022-07-03T03:05:46;17.00;99.90
10530;DHT22;5313;48.834;9.228;2022-07-03T03:08:14;16.90;99.90
10530;DHT22;5313;48.834;9.228;2022-07-03T03:10:41;16.80;99.90
10530;DHT22;5313;48.834;9.228;2022-07-03T03:13:13;16.70;99.90
10530;DHT22;5313;48.834;9.228;2022-07-03T03:18:27;16.50;99.90
10530;DHT22;5313;48.834;9.228;2022-07-03T03:20:59;16.50;99.90
10530;DHT22;5313;48.834;9.228;2022-07-03T03:23:47;16.50;99.90
10530;DHT22;5313;48.834;9.228;2022-07-03T03:26:16;16.60;99.90
10530;DHT22;5313;48.834;9.228;2022-07-03T03:28:43;16.50;99.90
10530;DHT22;5313;48.834;9.228;2022-07-03T03:31:09;16.40;99.90
10530;DHT22;5313;48.834;9.228;2022-07-03T03:33:43;16.40;99.90
10530;DHT22;5313;48.834;9.228;2022-07-03T03:36:10;16.50;99.90
10530;DHT22;5313;48.834;9.228;2022-07-03T03:38:40;17.30;99.90
10530;DHT22;5313;48.834;9.228;2022-07-03T03:41:06;18.20;99.90
10530;DHT22;5313;48.834;9.228;2022-07-03T03:43:33;18.70;99.90
10530;DHT22;5313;48.834;9.228;2022-07-03T03:45:59;18.90;99.90
10530;DHT22;5313;48.834;9.228;2022-07-03T03:48:29;18.90;99.90
10530;DHT22;5313;48.834;9.228;2022-07-03T03:50:55;19.00;99.90
10530;DHT22;5313;48.834;9.228;2022-07-03T03:53:22;18.80;99.90
10530;DHT22;5313;48.834;9.228;2022-07-03T03:56:05;18.20;99.90
10530;DHT22;5313;48.834;9.228;2022-07-03T03:58:35;18.80;99.90
10530;DHT22;5313;48.834;9.228;2022-07-03T04:01:03;18.70;99.90
10530;DHT22;5313;48.834;9.228;2022-07-03T04:03:30;18.70;99.90
10530;DHT22;5313;48.834;9.228;2022-07-03T04:05:55;18.40;99.90
10530;DHT22;5313;48.834;9.228;2022-07-03T04:08:22;18.60;99.90
10530;DHT22;5313;48.834;9.228;2022-07-03T04:10:49;18.90;99.90
10530;DHT22;5313;48.834;9.228;2022-07-03T04:13:15;18.60;99.90
10530;DHT22;5313;48.834;9.228;2022-07-03T04:15:42;18.60;99.90
10530;DHT22;5313;48.834;9.228;2022-07-03T04:18:08;18.50;99.90
10530;DHT22;5313;48.834;9.228;2022-07-03T04:20:34;18.70;99.90
10530;DHT22;5313;48.834;9.228;2022-07-03T04:23:00;19.10;99.90
10530;DHT22;5313;48.834;9.228;2022-07-03T04:25:26;19.00;99.90
10530;DHT22;5313;48.834;9.228;2022-07-03T04:27:51;18.90;99.90
10530;DHT22;5313;48.834;9.228;2022-07-03T04:30:17;18.60;99.90
10530;DHT22;5313;48.834;9.228;2022-07-03T04:32:43;18.40;99.90
10530;DHT22;5313;48.834;9.228;2022-07-03T04:35:09;18.30;99.90
10530;DHT22;5313;48.834;9.228;2022-07-03T04:37:35;18.50;99.90
10530;DHT22;5313;48.834;9.228;2022-07-03T04:40:01;18.70;99.90
10530;DHT22;5313;48.834;9.228;2022-07-03T04:42:26;19.00;99.90
10530;DHT22;5313;48.834;9.228;2022-07-03T04:44:52;18.90;99.90
10530;DHT22;5313;48.834;9.228;2022-07-03T04:47:17;19.10;99.90
10530;DHT22;5313;48.834;9.228;2022-07-03T04:49:44;19.10;99.90
10530;DHT22;5313;48.834;9.228;2022-07-03T04:52:10;19.00;99.90
10530;DHT22;5313;48.834;9.228;2022-07-03T04:54:36;19.00;99.90
10530;DHT22;5313;48.834;9.228;2022-07-03T04:57:02;18.90;99.90
10530;DHT22;5313;48.834;9.228;2022-07-03T04:59:27;18.60;99.90
10530;DHT22;5313;48.834;9.228;2022-07-03T05:01:53;19.20;99.90
10530;DHT22;5313;48.834;9.228;2022-07-03T05:04:18;19.60;99.90
10530;DHT22;5313;48.834;9.228;2022-07-03T05:06:44;19.70;99.90
10530;DHT22;5313;48.834;9.228;2022-07-03T05:09:10;19.90;99.90
10530;DHT22;5313;48.834;9.228;2022-07-03T05:11:35;19.70;99.90
10530;DHT22;5313;48.834;9.228;2022-07-03T05:14:04;19.60;99.90
10530;DHT22;5313;48.834;9.228;2022-07-03T05:16:30;19.70;99.90
10530;DHT22;5313;48.834;9.228;2022-07-03T05:18:56;19.60;99.90
10530;DHT22;5313;48.834;9.228;2022-07-03T05:21:22;19.60;99.90
10530;DHT22;5313;48.834;9.228;2022-07-03T05:23:47;19.80;99.90
10530;DHT22;5313;48.834;9.228;2022-07-03T05:26:13;19.80;99.90
10530;DHT22;5313;48.834;9.228;2022-07-03T05:28:39;19.90;99.90
10530;DHT22;5313;48.834;9.228;2022-07-03T05:31:05;19.90;99.90
10530;DHT22;5313;48.834;9.228;2022-07-03T05:33:30;20.20;99.90
10530;DHT22;5313;48.834;9.228;2022-07-03T05:35:57;20.20;99.90
10530;DHT22;5313;48.834;9.228;2022-07-03T05:38:23;20.20;99.90
10530;DHT22;5313;48.834;9.228;2022-07-03T05:41:07;20.20;99.90
10530;DHT22;5313;48.834;9.228;2022-07-03T05:43:32;20.10;99.90
10530;DHT22;5313;48.834;9.228;2022-07-03T05:45:58;20.20;99.90
10530;DHT22;5313;48.834;9.228;2022-07-03T05:48:23;20.40;99.90
10530;DHT22;5313;48.834;9.228;2022-07-03T05:50:49;20.50;99.90
10530;DHT22;5313;48.834;9.228;2022-07-03T05:53:14;20.40;99.90
10530;DHT22;5313;48.834;9.228;2022-07-03T05:55:40;20.60;99.90
10530;DHT22;5313;48.834;9.228;2022-07-03T05:58:06;20.70;99.90
10530;DHT22;5313;48.834;9.228;2022-07-03T06:00:31;20.90;99.90
10530;DHT22;5313;48.834;9.228;2022-07-03T06:02:57;21.10;99.90
10530;DHT22;5313;48.834;9.228;2022-07-03T06:05:22;20.90;99.90
10530;DHT22;5313;48.834;9.228;2022-07-03T06:07:48;20.90;99.90
10530;DHT22;5313;48.834;9.228;2022-07-03T06:10:15;21.10;99.90
10530;DHT22;5313;48.834;9.228;2022-07-03T06:12:41;21.10;99.90
10530;DHT22;5313;48.834;9.228;2022-07-03T06:15:07;21.10;99.90
10530;DHT22;5313;48.834;9.228;2022-07-03T06:17:35;21.30;99.90
10530;DHT22;5313;48.834;9.228;2022-07-03T06:20:04;21.20;99.90
10530;DHT22;5313;48.834;9.228;2022-07-03T06:22:30;21.50;99.90
10530;DHT22;5313;48.834;9.228;2022-07-03T06:24:56;21.60;99.90
10530;DHT22;5313;48.834;9.228;2022-07-03T06:27:21;21.60;99.90
10530;DHT22;5313;48.834;9.228;2022-07-03T06:29:48;21.80;99.90
10530;DHT22;5313;48.834;9.228;2022-07-03T06:32:15;21.90;99.90
10530;DHT22;5313;48.834;9.228;2022-07-03T06:34:41;22.00;99.90
10530;DHT22;5313;48.834;9.228;2022-07-03T06:37:08;22.10;99.90
10530;DHT22;5313;48.834;9.228;2022-07-03T06:39:34;22.20;99.90
10530;DHT22;5313;48.834;9.228;2022-07-03T06:41:59;22.30;99.90
10530;DHT22;5313;48.834;9.228;2022-07-03T06:44:25;22.50;99.90
10530;DHT22;5313;48.834;9.228;2022-07-03T06:46:50;22.50;99.90
10530;DHT22;5313;48.834;9.228;2022-07-03T06:49:16;22.30;99.90
10530;DHT22;5313;48.834;9.228;2022-07-03T06:51:41;22.50;99.90
10530;DHT22;5313;48.834;9.228;2022-07-03T06:54:07;22.50;99.90
10530;DHT22;5313;48.834;9.228;2022-07-03T06:56:32;22.70;99.90
10530;DHT22;5313;48.834;9.228;2022-07-03T06:58:59;22.80;99.90
10530;DHT22;5313;48.834;9.228;2022-07-03T07:01:24;23.00;99.90
10530;DHT22;5313;48.834;9.228;2022-07-03T07:03:50;23.10;99.90
10530;DHT22;5313;48.834;9.228;2022-07-03T07:06:16;23.10;99.90
10530;DHT22;5313;48.834;9.228;2022-07-03T07:08:41;23.20;99.90
10530;DHT22;5313;48.834;9.228;2022-07-03T07:11:07;23.20;99.90
10530;DHT22;5313;48.834;9.228;2022-07-03T07:13:32;23.40;99.90
10530;DHT22;5313;48.834;9.228;2022-07-03T07:15:58;23.40;99.90
10530;DHT22;5313;48.834;9.228;2022-07-03T07:18:23;23.40;99.90
10530;DHT22;5313;48.834;9.228;2022-07-03T07:20:49;23.60;99.90
10530;DHT22;5313;48.834;9.228;2022-07-03T07:23:14;23.70;99.90
10530;DHT22;5313;48.834;9.228;2022-07-03T07:25:40;23.80;99.90
10530;DHT22;5313;48.834;9.228;2022-07-03T07:28:05;24.80;99.90
10530;DHT22;5313;48.834;9.228;2022-07-03T07:30:31;24.00;99.90
10530;DHT22;5313;48.834;9.228;2022-07-03T07:32:56;24.20;99.90
10530;DHT22;5313;48.834;9.228;2022-07-03T07:35:22;24.20;99.90
10530;DHT22;5313;48.834;9.228;2022-07-03T07:37:47;24.20;99.90
10530;DHT22;5313;48.834;9.228;2022-07-03T07:40:13;24.20;99.90
10530;DHT22;5313;48.834;9.228;2022-07-03T07:42:39;24.20;99.90
10530;DHT22;5313;48.834;9.228;2022-07-03T07:45:05;24.20;99.90
10530;DHT22;5313;48.834;9.228;2022-07-03T07:47:31;24.10;99.90
10530;DHT22;5313;48.834;9.228;2022-07-03T07:49:56;24.30;99.90
10530;DHT22;5313;48.834;9.228;2022-07-03T07:52:22;24.40;99.90
10530;DHT22;5313;48.834;9.228;2022-07-03T07:54:49;24.60;99.90
10530;DHT22;5313;48.834;9.228;2022-07-03T07:57:15;24.80;99.90
10530;DHT22;5313;48.834;9.228;2022-07-03T07:59:41;24.90;99.90
10530;DHT22;5313;48.834;9.228;2022-07-03T08:02:06;25.10;99.90
10530;DHT22;5313;48.834;9.228;2022-07-03T08:04:50;25.00;99.90
10530;DHT22;5313;48.834;9.228;2022-07-03T08:07:34;25.00;99.90
10530;DHT22;5313;48.834;9.228;2022-07-03T08:10:00;25.00;99.90
10530;DHT22;5313;48.834;9.228;2022-07-03T08:12:25;25.20;99.90
10530;DHT22;5313;48.834;9.228;2022-07-03T08:14:51;25.40;99.90
10530;DHT22;5313;48.834;9.228;2022-07-03T08:17:16;25.60;99.90
10530;DHT22;5313;48.834;9.228;2022-07-03T08:19:42;25.70;99.90
10530;DHT22;5313;48.834;9.228;2022-07-03T08:22:07;25.70;99.90
10530;DHT22;5313;48.834;9.228;2022-07-03T08:24:33;25.80;99.90
10530;DHT22;5313;48.834;9.228;2022-07-03T08:26:58;25.90;99.90
10530;DHT22;5313;48.834;9.228;2022-07-03T08:29:24;25.80;99.90
10530;DHT22;5313;48.834;9.228;2022-07-03T08:31:49;25.70;99.90
10530;DHT22;5313;48.834;9.228;2022-07-03T08:34:15;25.70;99.90
10530;DHT22;5313;48.834;9.228;2022-07-03T08:36:41;25.70;99.90
10530;DHT22;5313;48.834;9.228;2022-07-03T08:39:07;25.60;99.90
10530;DHT22;5313;48.834;9.228;2022-07-03T08:41:36;25.80;99.90
10530;DHT22;5313;48.834;9.228;2022-07-03T08:44:02;26.00;99.90
10530;DHT22;5313;48.834;9.228;2022-07-03T08:46:31;26.20;99.90
10530;DHT22;5313;48.834;9.228;2022-07-03T08:48:59;26.30;99.90
10530;DHT22;5313;48.834;9.228;2022-07-03T08:51:27;26.40;99.90
10530;DHT22;5313;48.834;9.228;2022-07-03T08:53:59;26.40;99.90
10530;DHT22;5313;48.834;9.228;2022-07-03T08:56:25;26.30;99.90
10530;DHT22;5313;48.834;9.228;2022-07-03T08:58:52;26.30;99.90
10530;DHT22;5313;48.834;9.228;2022-07-03T09:01:18;26.50;99.90
10530;DHT22;5313;48.834;9.228;2022-07-03T09:03:45;26.60;99.50
10530;DHT22;5313;48.834;9.228;2022-07-03T09:06:14;26.70;98.10
10530;DHT22;5313;48.834;9.228;2022-07-03T09:08:40;26.80;96.00
10530;DHT22;5313;48.834;9.228;2022-07-03T09:11:06;27.00;96.70
10530;DHT22;5313;48.834;9.228;2022-07-03T09:13:32;27.10;95.50
10530;DHT22;5313;48.834;9.228;2022-07-03T09:15:58;27.00;91.80
10530;DHT22;5313;48.834;9.228;2022-07-03T09:18:40;27.00;93.50
10530;DHT22;5313;48.834;9.228;2022-07-03T09:21:06;27.10;94.80
10530;DHT22;5313;48.834;9.228;2022-07-03T09:23:36;27.20;95.20
10530;DHT22;5313;48.834;9.228;2022-07-03T09:26:03;27.30;94.30
10530;DHT22;5313;48.834;9.228;2022-07-03T09:28:55;27.30;92.80
10530;DHT22;5313;48.834;9.228;2022-07-03T09:31:22;27.10;92.10
10530;DHT22;5313;48.834;9.228;2022-07-03T09:34:00;27.10;92.80
10530;DHT22;5313;48.834;9.228;2022-07-03T09:36:48;27.20;94.00
10530;DHT22;5313;48.834;9.228;2022-07-03T09:44:35;27.50;92.60
10530;DHT22;5313;48.834;9.228;2022-07-03T09:47:11;27.60;92.60
10530;DHT22;5313;48.834;9.228;2022-07-03T09:49:47;27.80;88.50
10530;DHT22;5313;48.834;9.228;2022-07-03T09:57:39;28.20;85.80
10530;DHT22;5313;48.834;9.228;2022-07-03T10:00:28;28.30;84.70
10530;DHT22;5313;48.834;9.228;2022-07-03T10:02:55;28.40;89.30
10530;DHT22;5313;48.834;9.228;2022-07-03T10:05:22;28.50;86.10
10530;DHT22;5313;48.834;9.228;2022-07-03T10:08:10;28.70;86.90
10530;DHT22;5313;48.834;9.228;2022-07-03T10:10:43;28.70;87.70
10530;DHT22;5313;48.834;9.228;2022-07-03T10:13:09;28.60;88.50
10530;DHT22;5313;48.834;9.228;2022-07-03T10:15:37;29.00;89.60
10530;DHT22;5313;48.834;9.228;2022-07-03T10:18:05;29.30;87.20
10530;DHT22;5313;48.834;9.228;2022-07-03T10:20:48;29.50;88.40
10530;DHT22;5313;48.834;9.228;2022-07-03T10:23:21;29.40;85.90
10530;DHT22;5313;48.834;9.228;2022-07-03T10:25:47;29.00;88.80
10530;DHT22;5313;48.834;9.228;2022-07-03T10:28:14;29.30;84.50
10530;DHT22;5313;48.834;9.228;2022-07-03T10:30:43;29.30;82.50
10530;DHT22;5313;48.834;9.228;2022-07-03T10:33:09;29.20;84.00
10530;DHT22;5313;48.834;9.228;2022-07-03T10:35:37;29.30;83.60
10530;DHT22;5313;48.834;9.228;2022-07-03T10:43:37;30.20;80.40
10530;DHT22;5313;48.834;9.228;2022-07-03T10:46:22;30.70;77.10
10530;DHT22;5313;48.834;9.228;2022-07-03T10:51:18;30.20;78.80
10530;DHT22;5313;48.834;9.228;2022-07-03T10:53:43;29.70;82.70
10530;DHT22;5313;48.834;9.228;2022-07-03T10:56:09;30.10;83.60
10530;DHT22;5313;48.834;9.228;2022-07-03T10:58:57;30.20;79.20
10530;DHT22;5313;48.834;9.228;2022-07-03T11:01:27;30.00;87.70
10530;DHT22;5313;48.834;9.228;2022-07-03T11:03:53;30.50;82.40
10530;DHT22;5313;48.834;9.228;2022-07-03T11:09:09;30.80;72.90
10530;DHT22;5313;48.834;9.228;2022-07-03T11:11:44;30.50;71.90
10530;DHT22;5313;48.834;9.228;2022-07-03T11:14:27;30.80;76.00
10530;DHT22;5313;48.834;9.228;2022-07-03T11:17:18;30.80;72.20
10530;DHT22;5313;48.834;9.228;2022-07-03T11:19:45;31.00;75.30
10530;DHT22;5313;48.834;9.228;2022-07-03T11:25:19;30.70;78.10
10530;DHT22;5313;48.834;9.228;2022-07-03T11:27:45;31.10;77.10
10530;DHT22;5313;48.834;9.228;2022-07-03T11:30:13;31.20;77.20
10530;DHT22;5313;48.834;9.228;2022-07-03T11:32:45;31.20;76.10
10530;DHT22;5313;48.834;9.228;2022-07-03T11:38:10;31.50;72.40
10530;DHT22;5313;48.834;9.228;2022-07-03T11:40:36;30.90;70.30
10530;DHT22;5313;48.834;9.228;2022-07-03T11:43:05;30.50;73.60
10530;DHT22;5313;48.834;9.228;2022-07-03T11:45:31;31.00;73.20
10530;DHT22;5313;48.834;9.228;2022-07-03T11:47:57;31.00;71.10
10530;DHT22;5313;48.834;9.228;2022-07-03T11:50:40;31.10;76.00
10530;DHT22;5313;48.834;9.228;2022-07-03T11:55:54;31.80;74.80
10530;DHT22;5313;48.834;9.228;2022-07-03T11:58:20;31.60;78.00
10530;DHT22;5313;48.834;9.228;2022-07-03T12:00:46;32.00;78.20
10530;DHT22;5313;48.834;9.228;2022-07-03T12:03:15;32.40;75.20
10530;DHT22;5313;48.834;9.228;2022-07-03T12:05:56;32.40;74.50
10530;DHT22;5313;48.834;9.228;2022-07-03T12:08:27;32.50;73.90
10530;DHT22;5313;48.834;9.228;2022-07-03T12:10:58;31.80;71.40
10530;DHT22;5313;48.834;9.228;2022-07-03T12:13:24;31.70;73.20
10530;DHT22;5313;48.834;9.228;2022-07-03T12:15:50;32.00;74.00
10530;DHT22;5313;48.834;9.228;2022-07-03T12:18:16;31.50;73.60
10530;DHT22;5313;48.834;9.228;2022-07-03T12:20:42;31.40;73.90
10530;DHT22;5313;48.834;9.228;2022-07-03T12:23:08;31.50;73.20
10530;DHT22;5313;48.834;9.228;2022-07-03T12:25:40;31.50;72.70
10530;DHT22;5313;48.834;9.228;2022-07-03T12:28:09;31.60;72.60
10530;DHT22;5313;48.834;9.228;2022-07-03T12:30:36;31.80;74.50
10530;DHT22;5313;48.834;9.228;2022-07-03T12:33:03;31.20;75.90
10530;DHT22;5313;48.834;9.228;2022-07-03T12:35:29;30.60;76.80
10530;DHT22;5313;48.834;9.228;2022-07-03T12:37:55;31.20;74.60
10530;DHT22;5313;48.834;9.228;2022-07-03T12:40:21;31.40;78.70
10530;DHT22;5313;48.834;9.228;2022-07-03T12:42:54;31.60;78.60
10530;DHT22;5313;48.834;9.228;2022-07-03T12:45:28;31.60;76.50
10530;DHT22;5313;48.834;9.228;2022-07-03T12:48:01;31.60;75.40
10530;DHT22;5313;48.834;9.228;2022-07-03T12:50:44;31.70;75.90
10530;DHT22;5313;48.834;9.228;2022-07-03T12:53:10;31.60;76.00
10530;DHT22;5313;48.834;9.228;2022-07-03T12:55:35;32.20;72.10
10530;DHT22;5313;48.834;9.228;2022-07-03T12:58:15;32.40;71.40
10530;DHT22;5313;48.834;9.228;2022-07-03T13:00:59;32.80;70.50
10530;DHT22;5313;48.834;9.228;2022-07-03T13:03:29;32.60;77.30
10530;DHT22;5313;48.834;9.228;2022-07-03T13:05:55;32.70;74.70
10530;DHT22;5313;48.834;9.228;2022-07-03T13:08:21;32.90;71.10
10530;DHT22;5313;48.834;9.228;2022-07-03T13:10:57;32.40;73.10
10530;DHT22;5313;48.834;9.228;2022-07-03T13:13:23;31.70;72.90
10530;DHT22;5313;48.834;9.228;2022-07-03T13:15:49;31.90;77.00
10530;DHT22;5313;48.834;9.228;2022-07-03T13:18:14;32.90;72.00
10530;DHT22;5313;48.834;9.228;2022-07-03T13:20:40;33.40;70.70
10530;DHT22;5313;48.834;9.228;2022-07-03T13:23:06;32.40;70.50
10530;DHT22;5313;48.834;9.228;2022-07-03T13:25:35;31.80;72.60
10530;DHT22;5313;48.834;9.228;2022-07-03T13:28:09;31.90;71.60
10530;DHT22;5313;48.834;9.228;2022-07-03T13:30:36;31.80;72.80
10530;DHT22;5313;48.834;9.228;2022-07-03T13:33:02;32.20;73.30
10530;DHT22;5313;48.834;9.228;2022-07-03T13:35:28;32.70;71.40
10530;DHT22;5313;48.834;9.228;2022-07-03T13:37:54;32.90;69.10
10530;DHT22;5313;48.834;9.228;2022-07-03T13:40:19;31.90;70.30
10530;DHT22;5313;48.834;9.228;2022-07-03T13:42:45;31.70;68.70
10530;DHT22;5313;48.834;9.228;2022-07-03T13:45:11;32.30;70.90
10530;DHT22;5313;48.834;9.228;2022-07-03T13:47:36;33.20;68.70
10530;DHT22;5313;48.834;9.228;2022-07-03T13:50:02;33.40;68.70
10530;DHT22;5313;48.834;9.228;2022-07-03T13:52:28;34.80;62.90
10530;DHT22;5313;48.834;9.228;2022-07-03T13:54:54;35.10;62.60
10530;DHT22;5313;48.834;9.228;2022-07-03T13:57:19;34.20;62.90
10530;DHT22;5313;48.834;9.228;2022-07-03T13:59:45;35.00;60.90
10530;DHT22;5313;48.834;9.228;2022-07-03T14:02:10;35.20;58.80
10530;DHT22;5313;48.834;9.228;2022-07-03T14:04:36;35.00;58.50
10530;DHT22;5313;48.834;9.228;2022-07-03T14:07:01;35.10;59.50
10530;DHT22;5313;48.834;9.228;2022-07-03T14:09:27;34.30;60.60
10530;DHT22;5313;48.834;9.228;2022-07-03T14:11:53;33.60;62.20
10530;DHT22;5313;48.834;9.228;2022-07-03T14:14:18;33.60;63.50
10530;DHT22;5313;48.834;9.228;2022-07-03T14:16:44;33.30;65.70
10530;DHT22;5313;48.834;9.228;2022-07-03T14:19:09;33.20;62.50
10530;DHT22;5313;48.834;9.228;2022-07-03T14:21:35;32.70;63.90
10530;DHT22;5313;48.834;9.228;2022-07-03T14:24:00;33.00;63.40
10530;DHT22;5313;48.834;9.228;2022-07-03T14:26:26;33.10;64.60
10530;DHT22;5313;48.834;9.228;2022-07-03T14:29:10;33.60;65.20
10530;DHT22;5313;48.834;9.228;2022-07-03T14:31:56;34.60;61.70
10530;DHT22;5313;48.834;9.228;2022-07-03T14:34:40;34.60;61.10
10530;DHT22;5313;48.834;9.228;2022-07-03T14:37:07;34.30;61.50
10530;DHT22;5313;48.834;9.228;2022-07-03T14:39:32;34.30;63.30
10530;DHT22;5313;48.834;9.228;2022-07-03T14:41:58;34.40;62.50
10530;DHT22;5313;48.834;9.228;2022-07-03T14:44:23;34.40;61.20
10530;DHT22;5313;48.834;9.228;2022-07-03T14:46:51;34.00;64.00
10530;DHT22;5313;48.834;9.228;2022-07-03T14:49:17;35.30;62.40
10530;DHT22;5313;48.834;9.228;2022-07-03T14:51:43;35.50;59.00
10530;DHT22;5313;48.834;9.228;2022-07-03T14:54:09;34.00;61.00
10530;DHT22;5313;48.834;9.228;2022-07-03T14:56:39;33.40;62.70
10530;DHT22;5313;48.834;9.228;2022-07-03T14:59:07;34.10;62.90
10530;DHT22;5313;48.834;9.228;2022-07-03T15:01:36;34.00;61.30
10530;DHT22;5313;48.834;9.228;2022-07-03T15:04:09;33.00;62.50
10530;DHT22;5313;48.834;9.228;2022-07-03T15:06:38;33.70;62.20
10530;DHT22;5313;48.834;9.228;2022-07-03T15:09:04;33.90;62.30
10530;DHT22;5313;48.834;9.228;2022-07-03T15:11:38;33.10;63.30
10530;DHT22;5313;48.834;9.228;2022-07-03T15:14:25;33.20;63.70
10530;DHT22;5313;48.834;9.228;2022-07-03T15:16:51;33.60;63.00
10530;DHT22;5313;48.834;9.228;2022-07-03T15:19:19;33.40;61.70
10530;DHT22;5313;48.834;9.228;2022-07-03T15:21:47;33.80;60.20
10530;DHT22;5313;48.834;9.228;2022-07-03T15:24:14;33.90;61.90
10530;DHT22;5313;48.834;9.228;2022-07-03T15:26:40;33.40;63.10
10530;DHT22;5313;48.834;9.228;2022-07-03T15:29:07;33.60;62.30
10530;DHT22;5313;48.834;9.228;2022-07-03T15:31:36;33.40;61.40
10530;DHT22;5313;48.834;9.228;2022-07-03T15:34:05;32.60;62.90
10530;DHT22;5313;48.834;9.228;2022-07-03T15:39:38;33.60;61.10
10530;DHT22;5313;48.834;9.228;2022-07-03T15:50:08;32.20;63.70
10530;DHT22;5313;48.834;9.228;2022-07-03T15:52:39;32.00;63.50
10530;DHT22;5313;48.834;9.228;2022-07-03T15:55:07;31.70;63.90
10530;DHT22;5313;48.834;9.228;2022-07-03T16:00:10;32.00;64.60
10530;DHT22;5313;48.834;9.228;2022-07-03T16:05:11;31.50;65.40
10530;DHT22;5313;48.834;9.228;2022-07-03T16:07:39;31.00;65.70
10530;DHT22;5313;48.834;9.228;2022-07-03T16:10:08;30.70;68.60
10530;DHT22;5313;48.834;9.228;2022-07-03T16:12:35;31.50;67.90
10530;DHT22;5313;48.834;9.228;2022-07-03T16:15:01;31.20;66.10
10530;DHT22;5313;48.834;9.228;2022-07-03T16:17:31;31.30;66.90
10530;DHT22;5313;48.834;9.228;2022-07-03T16:19:57;31.40;65.50
10530;DHT22;5313;48.834;9.228;2022-07-03T16:22:26;31.60;64.40
10530;DHT22;5313;48.834;9.228;2022-07-03T16:24:54;31.50;64.70
10530;DHT22;5313;48.834;9.228;2022-07-03T16:27:21;31.60;65.90
10530;DHT22;5313;48.834;9.228;2022-07-03T16:29:49;31.70;63.40
10530;DHT22;5313;48.834;9.228;2022-07-03T16:32:20;31.20;64.90
10530;DHT22;5313;48.834;9.228;2022-07-03T16:35:01;31.30;66.70
10530;DHT22;5313;48.834;9.228;2022-07-03T16:37:35;31.70;64.40
10530;DHT22;5313;48.834;9.228;2022-07-03T16:40:04;31.70;64.50
10530;DHT22;5313;48.834;9.228;2022-07-03T16:42:35;32.00;65.40
10530;DHT22;5313;48.834;9.228;2022-07-03T16:45:07;31.70;63.50
10530;DHT22;5313;48.834;9.228;2022-07-03T16:47:47;31.20;66.00
10530;DHT22;5313;48.834;9.228;2022-07-03T16:50:20;30.90;67.40
10530;DHT22;5313;48.834;9.228;2022-07-03T16:52:51;30.60;68.20
10530;DHT22;5313;48.834;9.228;2022-07-03T16:55:19;31.00;66.20
10530;DHT22;5313;48.834;9.228;2022-07-03T16:57:53;30.40;68.40
10530;DHT22;5313;48.834;9.228;2022-07-03T17:00:24;30.50;67.50